createdAt,value
2023-05-23T00:01:20.122Z,17.40
2023-05-23T00:03:51.336Z,17.50
2023-05-23T00:06:23.346Z,17.60
2023-05-23T00:08:53.921Z,17.60
2023-05-23T00:11:28.689Z,17.60
2023-05-23T00:14:04.463Z,17.70
2023-05-23T00:16:35.038Z,17.70
2023-05-23T00:19:07.277Z,17.70
2023-05-23T00:21:37.680Z,17.80
2023-05-23T00:24:08.294Z,17.90
2023-05-23T00:26:39.001Z,17.90
2023-05-23T00:29:09.358Z,18.00
2023-05-23T00:31:39.707Z,18.00
2023-05-23T00:34:10.078Z,18.00
2023-05-23T00:36:40.483Z,18.10
2023-05-23T00:39:11.375Z,18.10
2023-05-23T00:41:41.761Z,18.20
2023-05-23T00:44:12.742Z,18.20
2023-05-23T00:46:45.168Z,18.20
2023-05-23T00:49:16.414Z,18.30
2023-05-23T00:51:46.885Z,18.30
2023-05-23T00:54:20.433Z,18.40
2023-05-23T00:56:50.842Z,18.40
2023-05-23T00:59:25.123Z,18.40
2023-05-23T01:01:58.210Z,18.50
2023-05-23T01:04:30.101Z,18.50
2023-05-23T01:07:02.376Z,18.50
2023-05-23T01:09:34.010Z,18.50
2023-05-23T01:12:15.304Z,18.60
2023-05-23T01:15:14.856Z,18.60
2023-05-23T01:18:10.010Z,18.70
2023-05-23T01:21:09.369Z,18.70
2023-05-23T01:24:05.581Z,18.70
2023-05-23T01:27:00.080Z,18.80
2023-05-23T01:29:41.244Z,18.80
2023-05-23T01:32:15.042Z,18.90
2023-05-23T01:34:46.289Z,18.90
2023-05-23T01:37:20.329Z,18.90
2023-05-23T01:39:50.985Z,19.00
2023-05-23T01:42:22.581Z,19.00
2023-05-23T01:44:53.018Z,19.00
2023-05-23T01:47:24.702Z,19.10
2023-05-23T01:49:57.196Z,19.10
2023-05-23T01:52:28.026Z,19.10
2023-05-23T01:54:59.180Z,19.20
2023-05-23T01:57:33.209Z,19.20
2023-05-23T02:00:03.594Z,19.30
2023-05-23T02:02:34.424Z,19.30
2023-05-23T02:05:04.858Z,19.30
2023-05-23T02:07:35.537Z,19.40
2023-05-23T02:10:07.477Z,19.40
2023-05-23T02:12:38.683Z,19.40
2023-05-23T02:15:10.526Z,19.50
2023-05-23T02:17:41.496Z,19.50
2023-05-23T02:20:12.489Z,19.50
2023-05-23T02:22:43.091Z,19.50
2023-05-23T02:25:13.789Z,19.50
2023-05-23T02:27:44.181Z,19.50
2023-05-23T02:30:14.950Z,19.50
2023-05-23T02:32:45.402Z,19.60
2023-05-23T02:35:15.864Z,19.60
2023-05-23T02:37:46.392Z,19.60
2023-05-23T02:40:16.718Z,19.60
2023-05-23T02:42:47.255Z,19.60
2023-05-23T02:45:17.679Z,19.70
2023-05-23T02:47:48.593Z,19.70
2023-05-23T02:50:19.114Z,19.80
2023-05-23T02:52:49.458Z,19.80
2023-05-23T02:55:19.765Z,19.80
2023-05-23T02:57:50.288Z,19.80
2023-05-23T03:00:20.961Z,19.90
2023-05-23T03:02:51.431Z,19.90
2023-05-23T03:05:22.071Z,19.90
2023-05-23T03:07:53.788Z,19.90
2023-05-23T03:10:24.114Z,19.90
2023-05-23T03:12:54.494Z,19.90
2023-05-23T03:15:24.834Z,19.90
2023-05-23T03:17:55.306Z,19.90
2023-05-23T03:20:25.740Z,19.90
2023-05-23T03:22:56.128Z,19.90
2023-05-23T03:25:26.781Z,19.90
2023-05-23T03:27:57.739Z,19.90
2023-05-23T03:30:28.109Z,20.00
2023-05-23T03:32:58.547Z,20.00
2023-05-23T03:35:29.561Z,20.00
2023-05-23T03:38:00.194Z,20.00
2023-05-23T03:40:30.593Z,20.00
2023-05-23T03:43:08.742Z,20.00
2023-05-23T03:45:39.604Z,20.00
2023-05-23T03:48:11.116Z,20.00
2023-05-23T03:50:42.119Z,20.00
2023-05-23T03:53:12.776Z,20.00
2023-05-23T03:55:43.580Z,20.00
2023-05-23T03:58:14.228Z,20.10
2023-05-23T04:00:44.582Z,20.00
2023-05-23T04:03:19.282Z,20.00
2023-05-23T04:05:49.798Z,20.00
2023-05-23T04:08:32.993Z,20.10
2023-05-23T04:11:03.935Z,20.10
2023-05-23T04:13:35.023Z,20.10
2023-05-23T04:16:07.349Z,20.10
2023-05-23T04:18:41.132Z,20.10
2023-05-23T04:21:11.598Z,20.10
2023-05-23T04:23:44.096Z,20.10
2023-05-23T04:26:14.807Z,20.10
2023-05-23T04:28:48.065Z,20.10
2023-05-23T04:31:18.379Z,20.10
2023-05-23T04:33:48.917Z,20.10
2023-05-23T04:36:19.943Z,20.10
2023-05-23T04:38:50.349Z,20.20
2023-05-23T04:41:25.099Z,20.10
2023-05-23T04:43:56.285Z,20.20
2023-05-23T04:46:29.537Z,20.10
2023-05-23T04:49:01.979Z,20.10
2023-05-23T04:51:32.353Z,20.10
2023-05-23T04:54:02.656Z,20.10
2023-05-23T04:56:33.198Z,20.20
2023-05-23T04:59:03.810Z,20.10
2023-05-23T05:01:34.239Z,20.20
2023-05-23T05:04:04.992Z,20.20
2023-05-23T05:06:35.408Z,20.20
2023-05-23T05:09:05.891Z,20.20
2023-05-23T05:11:36.317Z,20.30
2023-05-23T05:14:06.677Z,20.30
2023-05-23T05:16:38.065Z,20.20
2023-05-23T05:19:09.042Z,20.30
2023-05-23T05:21:39.862Z,20.30
2023-05-23T05:24:11.716Z,20.30
2023-05-23T05:26:42.413Z,20.30
2023-05-23T05:29:13.127Z,20.30
2023-05-23T05:31:45.105Z,20.30
2023-05-23T05:34:15.518Z,20.30
2023-05-23T05:36:49.850Z,20.30
2023-05-23T05:39:20.242Z,20.30
2023-05-23T05:41:50.530Z,20.30
2023-05-23T05:44:21.106Z,20.30
2023-05-23T05:46:51.754Z,20.30
2023-05-23T05:49:22.530Z,20.30
2023-05-23T05:51:53.419Z,20.30
2023-05-23T05:54:24.106Z,20.30
2023-05-23T05:56:54.555Z,20.30
2023-05-23T05:59:24.876Z,20.30
2023-05-23T06:01:55.697Z,20.40
2023-05-23T06:04:26.160Z,20.40
2023-05-23T06:06:56.464Z,20.30
2023-05-23T06:09:26.812Z,20.30
2023-05-23T06:11:57.244Z,20.40
2023-05-23T06:14:28.173Z,20.40
2023-05-23T06:16:59.052Z,20.40
2023-05-23T06:19:29.407Z,20.40
2023-05-23T06:21:59.712Z,20.40
2023-05-23T06:24:30.262Z,20.40
2023-05-23T06:27:00.601Z,20.40
2023-05-23T06:29:33.085Z,20.40
2023-05-23T06:32:03.413Z,20.30
2023-05-23T06:34:33.858Z,20.30
2023-05-23T06:37:04.200Z,20.30
2023-05-23T06:39:34.608Z,20.30
2023-05-23T06:42:06.063Z,20.30
2023-05-23T06:44:36.451Z,20.30
2023-05-23T06:47:06.893Z,20.20
2023-05-23T06:49:37.337Z,20.20
2023-05-23T06:52:07.836Z,20.20
2023-05-23T06:54:38.239Z,20.20
2023-05-23T06:57:08.755Z,20.20
2023-05-23T06:59:39.099Z,20.20
2023-05-23T07:02:09.673Z,20.20
2023-05-23T07:04:40.005Z,20.20
2023-05-23T07:07:10.326Z,20.20
2023-05-23T07:09:41.567Z,20.20
2023-05-23T07:12:11.978Z,20.20
2023-05-23T07:14:42.420Z,20.20
2023-05-23T07:17:12.863Z,20.20
2023-05-23T07:19:43.909Z,20.20
2023-05-23T07:22:14.342Z,20.20
2023-05-23T07:24:44.905Z,20.20
2023-05-23T07:27:15.435Z,20.20
2023-05-23T07:29:46.512Z,20.10
2023-05-23T07:32:17.350Z,20.10
2023-05-23T07:34:47.841Z,20.10
2023-05-23T07:37:19.054Z,20.10
2023-05-23T07:39:49.460Z,20.10
2023-05-23T07:42:19.821Z,20.10
2023-05-23T07:44:50.363Z,20.10
2023-05-23T07:47:20.713Z,20.20
2023-05-23T07:49:51.111Z,20.20
2023-05-23T07:52:21.946Z,20.20
2023-05-23T07:54:52.524Z,20.20
2023-05-23T07:57:22.930Z,20.20
2023-05-23T07:59:54.160Z,20.10
2023-05-23T08:02:24.604Z,20.20
2023-05-23T08:04:55.554Z,20.20
2023-05-23T08:07:25.933Z,20.20
2023-05-23T08:09:56.374Z,20.20
2023-05-23T08:12:26.734Z,20.20
2023-05-23T08:14:57.042Z,20.20
2023-05-23T08:17:27.672Z,20.20
2023-05-23T08:19:58.052Z,20.20
2023-05-23T08:22:28.439Z,20.20
2023-05-23T08:24:58.757Z,20.20
2023-05-23T08:27:29.068Z,20.20
2023-05-23T08:30:00.518Z,20.20
2023-05-23T08:32:31.809Z,20.20
2023-05-23T08:35:03.650Z,20.10
2023-05-23T08:37:34.299Z,20.10
2023-05-23T08:40:06.586Z,20.10
2023-05-23T08:42:38.498Z,20.10
2023-05-23T08:45:09.998Z,20.10
2023-05-23T08:47:43.206Z,20.00
2023-05-23T08:50:20.090Z,20.10
2023-05-23T08:52:58.518Z,20.00
2023-05-23T08:55:31.380Z,20.00
2023-05-23T08:58:02.486Z,20.00
2023-05-23T09:00:33.877Z,19.90
2023-05-23T09:03:05.959Z,19.90
2023-05-23T09:05:37.146Z,19.90
2023-05-23T09:08:07.962Z,19.90
2023-05-23T09:10:38.378Z,19.90
2023-05-23T09:13:09.457Z,19.90
2023-05-23T09:15:40.376Z,19.90
2023-05-23T09:18:10.808Z,19.90
2023-05-23T09:20:43.539Z,19.90
2023-05-23T09:23:15.684Z,19.90
2023-05-23T09:25:52.510Z,19.80
2023-05-23T09:28:22.979Z,19.90
2023-05-23T09:31:05.085Z,19.80
2023-05-23T09:33:52.212Z,19.80
2023-05-23T09:36:23.166Z,19.80
2023-05-23T09:38:56.787Z,19.80
2023-05-23T09:41:28.178Z,19.80
2023-05-23T09:43:58.647Z,19.80
2023-05-23T09:46:32.439Z,19.80
2023-05-23T09:49:02.815Z,19.80
2023-05-23T09:51:34.329Z,19.80
2023-05-23T09:54:04.620Z,19.80
2023-05-23T09:56:36.204Z,19.70
2023-05-23T09:59:10.316Z,19.70
2023-05-23T10:01:41.125Z,19.80
2023-05-23T10:04:12.887Z,19.70
2023-05-23T10:06:54.823Z,19.70
2023-05-23T10:09:27.426Z,19.70
2023-05-23T10:12:21.797Z,19.70
2023-05-23T10:15:04.312Z,19.70
2023-05-23T10:17:58.579Z,19.70
2023-05-23T10:20:33.540Z,19.70
2023-05-23T10:23:04.858Z,19.70
2023-05-23T10:25:38.633Z,19.60
2023-05-23T10:28:09.178Z,19.60
2023-05-23T10:30:40.497Z,19.60
2023-05-23T10:33:11.813Z,19.60
2023-05-23T10:36:24.851Z,19.60
2023-05-23T10:39:22.112Z,19.60
2023-05-23T10:41:58.767Z,19.50
2023-05-23T10:44:35.712Z,19.50
2023-05-23T10:47:07.437Z,19.50
2023-05-23T10:49:45.711Z,19.40
2023-05-23T10:52:19.335Z,19.40
2023-05-23T10:54:57.936Z,19.40
2023-05-23T10:57:31.775Z,19.40
2023-05-23T11:00:02.196Z,19.40
2023-05-23T11:02:33.194Z,19.40
2023-05-23T11:05:25.458Z,19.40
2023-05-23T11:08:16.467Z,19.40
2023-05-23T11:11:02.679Z,19.30
2023-05-23T11:13:56.953Z,19.30
2023-05-23T11:16:42.304Z,19.20
2023-05-23T11:19:31.775Z,19.20
2023-05-23T11:22:04.337Z,19.30
2023-05-23T11:24:54.478Z,19.20
2023-05-23T11:27:42.286Z,19.20
2023-05-23T11:30:17.011Z,19.20
2023-05-23T11:32:56.196Z,19.20
2023-05-23T11:35:26.947Z,19.20
2023-05-23T11:38:00.644Z,19.10
2023-05-23T11:40:40.555Z,19.10
2023-05-23T11:43:13.169Z,19.10
2023-05-23T11:45:44.711Z,19.10
2023-05-23T11:48:19.302Z,19.10
2023-05-23T11:50:55.248Z,19.10
2023-05-23T11:53:27.409Z,19.10
2023-05-23T11:56:00.884Z,19.00
2023-05-23T11:58:39.489Z,19.00
2023-05-23T12:01:11.946Z,19.00
2023-05-23T12:03:53.455Z,19.00
2023-05-23T12:06:26.637Z,19.00
2023-05-23T12:08:57.681Z,18.90
2023-05-23T12:11:28.623Z,18.90
2023-05-23T12:13:59.370Z,18.90
2023-05-23T12:16:35.384Z,18.90
2023-05-23T12:19:08.388Z,18.90
2023-05-23T12:21:49.964Z,18.80
2023-05-23T12:24:24.784Z,18.80
2023-05-23T12:27:01.149Z,18.80
2023-05-23T12:29:39.805Z,18.70
2023-05-23T12:32:10.635Z,18.80
2023-05-23T12:34:45.072Z,18.70
2023-05-23T12:37:20.194Z,18.70
2023-05-23T12:39:51.151Z,18.70
2023-05-23T12:42:21.497Z,18.70
2023-05-23T12:44:56.078Z,18.60
2023-05-23T12:47:26.713Z,18.60
2023-05-23T12:49:57.373Z,18.60
2023-05-23T12:52:29.428Z,18.60
2023-05-23T12:54:59.956Z,18.60
2023-05-23T12:57:30.442Z,18.60
2023-05-23T13:00:00.848Z,18.50
2023-05-23T13:02:31.993Z,18.50
2023-05-23T13:05:02.552Z,18.40
2023-05-23T13:07:32.935Z,18.40
2023-05-23T13:10:04.283Z,18.40
2023-05-23T13:12:36.417Z,18.40
2023-05-23T13:15:07.602Z,18.40
2023-05-23T13:17:38.044Z,18.30
2023-05-23T13:20:09.210Z,18.30
2023-05-23T13:22:39.572Z,18.30
2023-05-23T13:25:10.898Z,18.30
2023-05-23T13:27:41.494Z,18.20
2023-05-23T13:30:12.311Z,18.20
2023-05-23T13:32:42.917Z,18.20
2023-05-23T13:35:13.436Z,18.20
2023-05-23T13:37:43.897Z,18.20
2023-05-23T13:40:23.680Z,18.10
2023-05-23T13:42:54.631Z,18.10
2023-05-23T13:45:25.141Z,18.10
2023-05-23T13:47:55.712Z,18.00
2023-05-23T13:50:26.205Z,18.00
2023-05-23T13:52:56.570Z,18.00
2023-05-23T13:55:27.070Z,18.00
2023-05-23T13:57:57.476Z,18.00
2023-05-23T14:00:28.455Z,17.90
2023-05-23T14:02:58.921Z,17.90
2023-05-23T14:05:29.384Z,17.90
2023-05-23T14:08:00.031Z,17.90
2023-05-23T14:10:31.226Z,17.90
2023-05-23T14:13:02.265Z,17.80
2023-05-23T14:15:34.524Z,17.80
2023-05-23T14:18:05.325Z,17.80
2023-05-23T14:20:35.957Z,17.80
2023-05-23T14:23:06.373Z,17.80
2023-05-23T14:25:36.787Z,17.70
2023-05-23T14:28:07.370Z,17.70
2023-05-23T14:30:37.722Z,17.70
2023-05-23T14:33:10.593Z,17.60
2023-05-23T14:35:41.686Z,17.60
2023-05-23T14:38:12.783Z,17.60
2023-05-23T14:40:43.956Z,17.60
2023-05-23T14:43:14.850Z,17.60
2023-05-23T14:45:45.441Z,17.50
2023-05-23T14:48:16.109Z,17.50
2023-05-23T14:50:46.517Z,17.50
2023-05-23T14:53:17.116Z,17.50
2023-05-23T14:55:47.474Z,17.50
2023-05-23T14:58:18.442Z,17.40
2023-05-23T15:00:49.842Z,17.40
2023-05-23T15:03:20.710Z,17.40
2023-05-23T15:05:51.413Z,17.40
2023-05-23T15:08:31.490Z,17.30
2023-05-23T15:11:01.923Z,17.40
2023-05-23T15:13:32.255Z,17.30
2023-05-23T15:16:02.598Z,17.20
2023-05-23T15:18:41.312Z,17.20
2023-05-23T15:21:14.010Z,17.20
2023-05-23T15:23:44.428Z,17.20
2023-05-23T15:26:14.937Z,17.20
2023-05-23T15:28:45.279Z,17.20
2023-05-23T15:31:15.872Z,17.10
2023-05-23T15:33:46.460Z,17.10
2023-05-23T15:36:17.034Z,17.10
2023-05-23T15:38:48.116Z,17.10
2023-05-23T15:41:19.663Z,17.10
2023-05-23T15:43:50.039Z,17.10
2023-05-23T15:46:20.373Z,17.00
2023-05-23T15:48:50.851Z,17.00
2023-05-23T15:51:21.252Z,17.00
2023-05-23T15:56:24.493Z,16.90
2023-05-23T15:58:55.080Z,16.90
2023-05-23T16:01:25.634Z,16.90
2023-05-23T16:03:56.350Z,16.80
2023-05-23T16:06:27.049Z,16.90
2023-05-23T16:08:58.138Z,16.80
2023-05-23T16:11:28.493Z,16.80
2023-05-23T16:13:59.050Z,16.80
2023-05-23T16:16:29.486Z,16.80
2023-05-23T16:18:59.969Z,16.80
2023-05-23T16:21:30.324Z,16.70
2023-05-23T16:24:00.651Z,16.70
2023-05-23T16:26:31.062Z,16.70
2023-05-23T16:29:01.434Z,16.70
2023-05-23T16:31:33.331Z,16.60
2023-05-23T16:34:03.723Z,16.60
2023-05-23T16:36:34.615Z,16.60
2023-05-23T16:39:04.867Z,16.60
2023-05-23T16:41:35.198Z,16.60
2023-05-23T16:44:05.568Z,16.60
2023-05-23T16:46:35.963Z,16.50
2023-05-23T16:49:06.389Z,16.50
2023-05-23T16:51:36.666Z,16.50
2023-05-23T16:54:07.190Z,16.50
2023-05-23T16:56:38.070Z,16.50
2023-05-23T16:59:08.720Z,16.40
2023-05-23T17:01:39.163Z,16.40
2023-05-23T17:04:09.586Z,16.40
2023-05-23T17:06:39.952Z,16.30
2023-05-23T17:09:10.380Z,16.40
2023-05-23T17:11:40.760Z,16.30
2023-05-23T17:14:11.103Z,16.30
2023-05-23T17:16:41.619Z,16.30
2023-05-23T17:19:12.262Z,16.30
2023-05-23T17:21:43.326Z,16.20
2023-05-23T17:24:13.848Z,16.20
2023-05-23T17:26:44.301Z,16.20
2023-05-23T17:29:14.718Z,16.20
2023-05-23T17:31:45.566Z,16.20
2023-05-23T17:34:16.310Z,16.10
2023-05-23T17:36:46.866Z,16.10
2023-05-23T17:39:18.116Z,16.10
2023-05-23T17:41:48.725Z,16.10
2023-05-23T17:44:20.372Z,16.00
2023-05-23T17:46:50.825Z,16.10
2023-05-23T17:49:21.252Z,16.00
2023-05-23T17:51:51.603Z,16.00
2023-05-23T17:54:21.861Z,16.00
2023-05-23T17:56:52.155Z,16.00
2023-05-23T17:59:22.521Z,15.90
2023-05-23T18:01:53.333Z,15.90
2023-05-23T18:04:24.809Z,15.90
2023-05-23T18:06:55.126Z,15.90
2023-05-23T18:09:25.567Z,15.90
2023-05-23T18:11:55.996Z,15.80
2023-05-23T18:14:26.309Z,15.80
2023-05-23T18:16:56.715Z,15.80
2023-05-23T18:19:27.214Z,15.80
2023-05-23T18:21:58.097Z,15.80
2023-05-23T18:24:28.459Z,15.70
2023-05-23T18:26:58.983Z,15.70
2023-05-23T18:29:29.373Z,15.70
2023-05-23T18:31:59.690Z,15.70
2023-05-23T18:34:30.038Z,15.70
2023-05-23T18:37:00.435Z,15.70
2023-05-23T18:39:30.850Z,15.70
2023-05-23T18:42:01.537Z,15.60
2023-05-23T18:44:31.859Z,15.60
2023-05-23T18:47:02.285Z,15.60
2023-05-23T18:49:32.599Z,15.60
2023-05-23T18:52:03.480Z,15.50
2023-05-23T18:54:33.777Z,15.60
2023-05-23T18:57:04.983Z,15.50
2023-05-23T18:59:35.310Z,15.50
2023-05-23T19:02:05.838Z,15.50
2023-05-23T19:04:36.360Z,15.50
2023-05-23T19:07:07.668Z,15.50
2023-05-23T19:09:37.997Z,15.40
2023-05-23T19:12:08.578Z,15.40
2023-05-23T19:14:38.921Z,15.40
2023-05-23T19:17:09.289Z,15.40
2023-05-23T19:19:39.679Z,15.40
2023-05-23T19:22:10.190Z,15.40
2023-05-23T19:24:41.196Z,15.30
2023-05-23T19:27:11.504Z,15.30
2023-05-23T19:29:42.173Z,15.30
2023-05-23T19:32:12.714Z,15.30
2023-05-23T19:34:43.273Z,15.30
2023-05-23T19:37:13.661Z,15.20
2023-05-23T19:39:47.428Z,15.20
2023-05-23T19:42:18.346Z,15.20
2023-05-23T19:44:49.072Z,15.20
2023-05-23T19:47:19.428Z,15.20
2023-05-23T19:49:49.779Z,15.20
2023-05-23T19:52:20.198Z,15.20
2023-05-23T19:54:50.476Z,15.20
2023-05-23T19:57:20.857Z,15.10
2023-05-23T19:59:51.341Z,15.10
2023-05-23T20:02:21.949Z,15.10
2023-05-23T20:04:52.399Z,15.10
2023-05-23T20:07:24.035Z,15.10
2023-05-23T20:09:54.449Z,15.10
2023-05-23T20:12:25.283Z,15.10
2023-05-23T20:14:55.785Z,15.10
2023-05-23T20:17:26.696Z,15.10
2023-05-23T20:19:57.396Z,15.10
2023-05-23T20:22:28.281Z,15.00
2023-05-23T20:24:58.673Z,15.00
2023-05-23T20:27:29.398Z,15.00
2023-05-23T20:29:59.731Z,15.00
2023-05-23T20:32:30.285Z,15.00
2023-05-23T20:35:00.676Z,15.00
2023-05-23T20:37:31.106Z,15.00
2023-05-23T20:40:02.326Z,14.90
2023-05-23T20:42:34.456Z,15.00
2023-05-23T20:45:08.658Z,14.90
2023-05-23T20:47:43.097Z,15.00
2023-05-23T20:50:17.227Z,15.00
2023-05-23T20:52:47.612Z,15.00
2023-05-23T20:55:18.036Z,15.10
2023-05-23T20:57:48.631Z,15.10
2023-05-23T21:00:20.324Z,15.20
2023-05-23T21:02:50.940Z,15.20
2023-05-23T21:05:21.345Z,15.30
2023-05-23T21:07:51.716Z,15.30
2023-05-23T21:10:22.154Z,15.30
2023-05-23T21:12:53.376Z,15.40
2023-05-23T21:15:23.801Z,15.40
2023-05-23T21:17:54.402Z,15.50
2023-05-23T21:20:24.759Z,15.50
2023-05-23T21:22:55.117Z,15.60
2023-05-23T21:25:25.418Z,15.60
2023-05-23T21:27:55.755Z,15.70
2023-05-23T21:30:26.494Z,15.70
2023-05-23T21:32:56.963Z,15.80
2023-05-23T21:35:27.792Z,15.80
2023-05-23T21:37:58.298Z,15.90
2023-05-23T21:40:29.573Z,15.90
2023-05-23T21:43:00.116Z,16.00
2023-05-23T21:45:30.549Z,16.10
2023-05-23T21:48:01.216Z,16.10
2023-05-23T21:50:31.794Z,16.20
2023-05-23T21:53:02.322Z,16.30
2023-05-23T21:55:32.873Z,16.30
2023-05-23T21:58:03.315Z,16.40
2023-05-23T22:00:33.740Z,16.40
2023-05-23T22:03:04.362Z,16.50
2023-05-23T22:05:34.716Z,16.50
2023-05-23T22:08:05.358Z,16.60
2023-05-23T22:10:38.612Z,16.60
2023-05-23T22:13:09.492Z,16.70
2023-05-23T22:15:39.791Z,16.70
2023-05-23T22:18:10.138Z,16.80
2023-05-23T22:20:40.684Z,16.80
2023-05-23T22:23:11.729Z,16.80
2023-05-23T22:25:42.029Z,16.90
2023-05-23T22:28:12.395Z,16.90
2023-05-23T22:30:42.941Z,17.00
2023-05-23T22:33:14.781Z,17.00
2023-05-23T22:35:48.361Z,17.10
2023-05-23T22:38:21.562Z,17.10
2023-05-23T22:40:51.831Z,17.20
2023-05-23T22:43:23.502Z,17.20
2023-05-23T22:45:54.177Z,17.20
2023-05-23T22:48:26.513Z,17.30
2023-05-23T22:50:58.709Z,17.30
2023-05-23T22:53:29.029Z,17.30
2023-05-23T22:55:59.642Z,17.40
2023-05-23T22:58:30.065Z,17.40
2023-05-23T23:01:00.429Z,17.50
2023-05-23T23:03:30.765Z,17.50
2023-05-23T23:06:01.080Z,17.50
2023-05-23T23:08:36.015Z,17.50
2023-05-23T23:11:06.500Z,17.60
2023-05-23T23:13:36.922Z,17.60
2023-05-23T23:16:08.187Z,17.60
2023-05-23T23:18:38.876Z,17.70
2023-05-23T23:21:09.253Z,17.70
2023-05-23T23:23:40.046Z,17.70
2023-05-23T23:26:10.364Z,17.80
2023-05-23T23:28:40.688Z,17.90
2023-05-23T23:31:11.060Z,17.90
2023-05-23T23:33:41.408Z,18.00
2023-05-23T23:36:12.282Z,18.00
2023-05-23T23:38:42.638Z,18.10
2023-05-23T23:41:13.468Z,18.10
2023-05-23T23:43:43.777Z,18.10
2023-05-23T23:46:14.103Z,18.20
2023-05-23T23:48:44.410Z,18.20
2023-05-23T23:51:14.983Z,18.30
2023-05-23T23:53:48.023Z,18.30
2023-05-23T23:56:19.286Z,18.40
2023-05-23T23:58:49.948Z,18.40
